Relevés horaires Samedan (Suisse)


Relevés horaires à Samedan - Dimanche 29 Juin 2003
Heure UTC1 Température [°C] Vent [km/h] Hum. [%] Pres.4 [hPa] Visi. [Km] Nébu. [octa] Préc.5 [mm] Cond.
2m. Res. Ros. Dir.2 Vit. Moy. Raf.3
23:00 10.4 9.6 8.9 SSO 7.4 -- -- 90 850 -- -- -- --
22:00 12.2 11.1 9.8 S 11.1 -- -- 85 850 -- -- -- --
21:00 13.5 12.7 10.1 S 11.1 -- -- 80 850 -- -- -- --
20:00 14.4 13 10.4 SO 18.5 -- -- 77 850 -- -- -- --
19:00 15.3 13.8 10.5 SO 24.1 -- -- 73 850 -- -- -- --
18:00 16.6 15.6 9.9 SO 22.2 -- -- 65 850(0.4/3h) 40 3/8 0/0h
--
17:00 18.5 18 9.6 OSO 22.2 -- -- 56 850 -- -- -- --
16:00 19.0 18.5 8.7 OSO 25.9 -- -- 51 850 -- -- -- --
15:00 21.6 21.6 5.7 SO 24.1 -- 37.0 35 850(-0.6/3h) 40 4/8 -- --
14:00 21.7 21.7 3.7 SSO 11.1 -- -- 31 850 -- -- -- --
13:00 21.2 21.2 1.8 N 3.7 -- -- 28 850 -- -- -- --
12:00 21.0 21.0 2.4 SE 9.3 -- 37.0 29 850(-0.6/3h) 40 3/8 0/0h
--
11:00 20.2 20.2 1.2 N 13.0 -- -- 28 850 -- -- -- --
10:00 17.8 17.8 2.7 E 9.3 -- -- 36 850 -- -- -- --
09:00 14.4 14.4 9.1 NNE 3.7 -- -- 70 850(-0.2/3h) 40 3/8 -- --
08:00 10.7 10.7 8.7 ESE 3.7 -- -- 87 850 -- -- -- --
07:00 9.6 9.6 8.2 ESE 3.7 -- -- 91 850 -- -- -- --
06:00 9.5 9.5 8.2 ENE 3.7 -- -- 92 850(0.0/3h) 5 8/8 3/12h
Etat du ciel inchangé
05:00 9.4 9.4 8.2 ENE 3.7 -- -- 92 850 -- -- -- --
04:00 9.7 9.7 8.6 NE 3.7 -- -- 93 850 -- -- -- --
03:00 9.0 9.0 8.2 NNO 0.0 -- -- 95 850 -- -- -- --
02:00 9.7 9.7 8.7 E 3.7 -- -- 93 850 -- -- -- --
01:00 9.7 8.8 8.8 NE 7.4 -- -- 94 850 -- -- -- --
00:00 10.0 9.6 9.1 N 5.6 -- -- 94 850(-0.6/3h) -- -- -- --

1 Coordinated Universal Time. Actuellement il est 09:00 locale et 07:00 UTC.

2 Le vent souffle depuis la direction indiquée vers la direction oposée.

3 Les rafales max. sont disponible 40 min après l'heure du relevé.

4 Pour les stations d'altitude (plus de 600m) le géopotentiel du niveau le plus proche de la pression obligatoire est indiqué.

5 Les stations disposant d'un diffuseur peuvent indiquer "trace". Cela signifie que des précipitations ont touchés le sol mais que la quantité est inférieure à 0.1 mm.

Copyright

Les données affichées sur cette page sont la propriété exclusive de Météo Suisse.

Récapitulatif de la journée
Température [°C] Vent [km/h] Ensoleillement4 [h] Precipitations totale5 [mm] Pression [Hpa]
Min1 Max.2 Moy.3 Max. Min Max.
9.0 22.2 0 37.0 8 h 54 min 0 850.0 850.0

1 Température minimale relevée entre 18:00 UTC la veille et 18:00 UTC le jour donné.

2 Température maximale relevée entre 06:00 UTC le jour donné et 06:00 UTC le lendemain.

3 Vent moyen de la journée basé sur les relevés horaires.

4 Ensoleillement en heures relevé entre 06:00 UTC la veille et 06:00 UTC le jour donné.

5 Précipitations totales tombées entre 06:00 UTC la jour donné et 06:00 UTC le lendemain.

Graphiques horaires